sensor_id;sensor_type;location;lat;lon;timestamp;temperature;humidity
5520;DHT22;2782;52.362;10.012;2023-09-30T00:00:14;21.00;99.90
5520;DHT22;2782;52.362;10.012;2023-09-30T00:01:16;21.00;99.90
5520;DHT22;2782;52.362;10.012;2023-09-30T00:02:16;21.00;99.90
5520;DHT22;2782;52.362;10.012;2023-09-30T00:03:17;21.00;99.90
5520;DHT22;2782;52.362;10.012;2023-09-30T00:04:20;21.00;99.90
5520;DHT22;2782;52.362;10.012;2023-09-30T00:05:21;21.00;99.90
5520;DHT22;2782;52.362;10.012;2023-09-30T00:06:22;21.00;99.90
5520;DHT22;2782;52.362;10.012;2023-09-30T00:07:23;21.00;99.90
5520;DHT22;2782;52.362;10.012;2023-09-30T00:08:25;21.00;99.90
5520;DHT22;2782;52.362;10.012;2023-09-30T00:09:26;21.00;99.90
5520;DHT22;2782;52.362;10.012;2023-09-30T00:10:27;21.00;99.90
5520;DHT22;2782;52.362;10.012;2023-09-30T00:11:28;21.00;99.90
5520;DHT22;2782;52.362;10.012;2023-09-30T00:12:30;21.00;99.90
5520;DHT22;2782;52.362;10.012;2023-09-30T00:13:30;21.00;99.90
5520;DHT22;2782;52.362;10.012;2023-09-30T00:14:32;21.00;99.90
5520;DHT22;2782;52.362;10.012;2023-09-30T00:15:33;21.00;99.90
5520;DHT22;2782;52.362;10.012;2023-09-30T00:16:33;21.00;99.90
5520;DHT22;2782;52.362;10.012;2023-09-30T00:17:35;21.00;99.90
5520;DHT22;2782;52.362;10.012;2023-09-30T00:18:36;21.00;99.90
5520;DHT22;2782;52.362;10.012;2023-09-30T00:19:39;21.00;99.90
5520;DHT22;2782;52.362;10.012;2023-09-30T00:20:39;21.00;99.90
5520;DHT22;2782;52.362;10.012;2023-09-30T00:21:41;21.00;99.90
5520;DHT22;2782;52.362;10.012;2023-09-30T00:22:43;21.00;99.90
5520;DHT22;2782;52.362;10.012;2023-09-30T00:23:44;21.00;99.90
5520;DHT22;2782;52.362;10.012;2023-09-30T00:24:45;21.00;99.90
5520;DHT22;2782;52.362;10.012;2023-09-30T00:25:47;21.00;99.90
5520;DHT22;2782;52.362;10.012;2023-09-30T00:26:49;21.00;99.90
5520;DHT22;2782;52.362;10.012;2023-09-30T00:27:51;21.00;99.90
5520;DHT22;2782;52.362;10.012;2023-09-30T00:28:52;21.00;99.90
5520;DHT22;2782;52.362;10.012;2023-09-30T00:29:54;21.00;99.90
5520;DHT22;2782;52.362;10.012;2023-09-30T00:30:54;21.00;99.90
5520;DHT22;2782;52.362;10.012;2023-09-30T00:31:56;21.00;99.90
5520;DHT22;2782;52.362;10.012;2023-09-30T00:32:57;21.00;99.90
5520;DHT22;2782;52.362;10.012;2023-09-30T00:33:59;21.00;99.90
5520;DHT22;2782;52.362;10.012;2023-09-30T00:35:02;21.00;99.90
5520;DHT22;2782;52.362;10.012;2023-09-30T00:36:08;21.00;99.90
5520;DHT22;2782;52.362;10.012;2023-09-30T00:37:09;20.90;99.90
5520;DHT22;2782;52.362;10.012;2023-09-30T00:38:11;21.00;99.90
5520;DHT22;2782;52.362;10.012;2023-09-30T00:39:11;21.00;99.90
5520;DHT22;2782;52.362;10.012;2023-09-30T00:40:13;21.00;99.90
5520;DHT22;2782;52.362;10.012;2023-09-30T00:41:14;21.00;99.90
5520;DHT22;2782;52.362;10.012;2023-09-30T00:42:15;21.00;99.90
5520;DHT22;2782;52.362;10.012;2023-09-30T00:43:19;21.00;99.90
5520;DHT22;2782;52.362;10.012;2023-09-30T00:44:20;21.00;99.90
5520;DHT22;2782;52.362;10.012;2023-09-30T00:45:22;21.00;99.90
5520;DHT22;2782;52.362;10.012;2023-09-30T00:46:26;21.00;99.90
5520;DHT22;2782;52.362;10.012;2023-09-30T00:47:27;21.00;99.90
5520;DHT22;2782;52.362;10.012;2023-09-30T00:48:29;21.00;99.90
5520;DHT22;2782;52.362;10.012;2023-09-30T00:49:30;21.00;99.90
5520;DHT22;2782;52.362;10.012;2023-09-30T00:50:34;21.00;99.90
5520;DHT22;2782;52.362;10.012;2023-09-30T00:51:35;20.90;99.90
5520;DHT22;2782;52.362;10.012;2023-09-30T00:52:38;21.00;99.90
5520;DHT22;2782;52.362;10.012;2023-09-30T00:53:39;21.00;99.90
5520;DHT22;2782;52.362;10.012;2023-09-30T00:54:41;21.00;99.90
5520;DHT22;2782;52.362;10.012;2023-09-30T00:55:44;21.00;99.90
5520;DHT22;2782;52.362;10.012;2023-09-30T00:56:47;20.90;99.90
5520;DHT22;2782;52.362;10.012;2023-09-30T00:57:49;20.90;99.90
5520;DHT22;2782;52.362;10.012;2023-09-30T00:58:50;21.00;99.90
5520;DHT22;2782;52.362;10.012;2023-09-30T00:59:52;21.00;99.90
5520;DHT22;2782;52.362;10.012;2023-09-30T01:00:53;20.90;99.90
5520;DHT22;2782;52.362;10.012;2023-09-30T01:01:56;20.90;99.90
5520;DHT22;2782;52.362;10.012;2023-09-30T01:02:58;21.00;99.90
5520;DHT22;2782;52.362;10.012;2023-09-30T01:04:05;20.90;99.90
5520;DHT22;2782;52.362;10.012;2023-09-30T01:05:06;20.90;99.90
5520;DHT22;2782;52.362;10.012;2023-09-30T01:06:09;20.90;99.90
5520;DHT22;2782;52.362;10.012;2023-09-30T01:07:10;20.90;99.90
5520;DHT22;2782;52.362;10.012;2023-09-30T01:08:12;20.90;99.90
5520;DHT22;2782;52.362;10.012;2023-09-30T01:09:13;20.90;99.90
5520;DHT22;2782;52.362;10.012;2023-09-30T01:10:15;20.90;99.90
5520;DHT22;2782;52.362;10.012;2023-09-30T01:11:16;20.90;99.90
5520;DHT22;2782;52.362;10.012;2023-09-30T01:12:18;20.90;99.90
5520;DHT22;2782;52.362;10.012;2023-09-30T01:13:20;20.90;99.90
5520;DHT22;2782;52.362;10.012;2023-09-30T01:14:25;20.90;99.90
5520;DHT22;2782;52.362;10.012;2023-09-30T01:15:28;20.90;99.90
5520;DHT22;2782;52.362;10.012;2023-09-30T01:16:30;20.90;99.90
5520;DHT22;2782;52.362;10.012;2023-09-30T01:17:31;20.90;99.90
5520;DHT22;2782;52.362;10.012;2023-09-30T01:18:32;20.90;99.90
5520;DHT22;2782;52.362;10.012;2023-09-30T01:19:33;20.90;99.90
5520;DHT22;2782;52.362;10.012;2023-09-30T01:20:34;20.90;99.90
5520;DHT22;2782;52.362;10.012;2023-09-30T01:21:37;20.90;99.90
5520;DHT22;2782;52.362;10.012;2023-09-30T01:22:38;20.90;99.90
5520;DHT22;2782;52.362;10.012;2023-09-30T01:23:41;20.90;99.90
5520;DHT22;2782;52.362;10.012;2023-09-30T01:24:44;20.90;99.90
5520;DHT22;2782;52.362;10.012;2023-09-30T01:25:47;20.90;99.90
5520;DHT22;2782;52.362;10.012;2023-09-30T01:26:50;20.90;99.90
5520;DHT22;2782;52.362;10.012;2023-09-30T01:27:50;20.90;99.90
5520;DHT22;2782;52.362;10.012;2023-09-30T01:28:52;20.90;99.90
5520;DHT22;2782;52.362;10.012;2023-09-30T01:29:53;20.90;99.90
5520;DHT22;2782;52.362;10.012;2023-09-30T01:30:54;20.90;99.90
5520;DHT22;2782;52.362;10.012;2023-09-30T01:31:55;20.90;99.90
5520;DHT22;2782;52.362;10.012;2023-09-30T01:32:56;20.90;99.90
5520;DHT22;2782;52.362;10.012;2023-09-30T01:33:59;20.90;99.90
5520;DHT22;2782;52.362;10.012;2023-09-30T01:34:59;20.90;99.90
5520;DHT22;2782;52.362;10.012;2023-09-30T01:36:01;20.90;99.90
5520;DHT22;2782;52.362;10.012;2023-09-30T01:37:03;20.90;99.90
5520;DHT22;2782;52.362;10.012;2023-09-30T01:38:05;20.90;99.90
5520;DHT22;2782;52.362;10.012;2023-09-30T01:39:06;20.90;99.90
5520;DHT22;2782;52.362;10.012;2023-09-30T01:40:08;20.90;99.90
5520;DHT22;2782;52.362;10.012;2023-09-30T01:41:12;20.90;99.90
5520;DHT22;2782;52.362;10.012;2023-09-30T01:42:12;20.90;99.90
5520;DHT22;2782;52.362;10.012;2023-09-30T01:43:14;20.90;99.90
5520;DHT22;2782;52.362;10.012;2023-09-30T01:44:15;20.90;99.90
5520;DHT22;2782;52.362;10.012;2023-09-30T01:45:17;20.90;99.90
5520;DHT22;2782;52.362;10.012;2023-09-30T01:46:17;20.90;99.90
5520;DHT22;2782;52.362;10.012;2023-09-30T01:47:19;20.90;99.90
5520;DHT22;2782;52.362;10.012;2023-09-30T01:48:20;20.90;99.90
5520;DHT22;2782;52.362;10.012;2023-09-30T01:49:21;20.90;99.90
5520;DHT22;2782;52.362;10.012;2023-09-30T01:50:24;20.90;99.90
5520;DHT22;2782;52.362;10.012;2023-09-30T01:51:26;20.90;99.90
5520;DHT22;2782;52.362;10.012;2023-09-30T01:52:29;20.90;99.90
5520;DHT22;2782;52.362;10.012;2023-09-30T01:53:31;20.90;99.90
5520;DHT22;2782;52.362;10.012;2023-09-30T01:54:31;20.90;99.90
5520;DHT22;2782;52.362;10.012;2023-09-30T01:55:33;20.90;99.90
5520;DHT22;2782;52.362;10.012;2023-09-30T01:56:34;20.90;99.90
5520;DHT22;2782;52.362;10.012;2023-09-30T01:57:36;20.90;99.90
5520;DHT22;2782;52.362;10.012;2023-09-30T01:58:37;20.90;99.90
5520;DHT22;2782;52.362;10.012;2023-09-30T01:59:39;20.90;99.90
5520;DHT22;2782;52.362;10.012;2023-09-30T02:00:40;20.90;99.90
5520;DHT22;2782;52.362;10.012;2023-09-30T02:01:41;20.90;99.90
5520;DHT22;2782;52.362;10.012;2023-09-30T02:05:49;20.90;99.90
5520;DHT22;2782;52.362;10.012;2023-09-30T02:06:51;20.90;99.90
5520;DHT22;2782;52.362;10.012;2023-09-30T02:07:53;20.90;99.90
5520;DHT22;2782;52.362;10.012;2023-09-30T02:08:55;20.90;99.90
5520;DHT22;2782;52.362;10.012;2023-09-30T02:09:55;20.90;99.90
5520;DHT22;2782;52.362;10.012;2023-09-30T02:10:57;20.90;99.90
5520;DHT22;2782;52.362;10.012;2023-09-30T02:11:58;20.90;99.90
5520;DHT22;2782;52.362;10.012;2023-09-30T02:12:59;20.90;99.90
5520;DHT22;2782;52.362;10.012;2023-09-30T02:14:01;20.90;99.90
5520;DHT22;2782;52.362;10.012;2023-09-30T02:15:04;20.90;99.90
5520;DHT22;2782;52.362;10.012;2023-09-30T02:16:05;20.90;99.90
5520;DHT22;2782;52.362;10.012;2023-09-30T02:17:06;20.90;99.90
5520;DHT22;2782;52.362;10.012;2023-09-30T02:18:07;20.90;99.90
5520;DHT22;2782;52.362;10.012;2023-09-30T02:19:09;20.90;99.90
5520;DHT22;2782;52.362;10.012;2023-09-30T02:20:12;20.90;99.90
5520;DHT22;2782;52.362;10.012;2023-09-30T02:21:16;20.90;99.90
5520;DHT22;2782;52.362;10.012;2023-09-30T02:22:17;20.90;99.90
5520;DHT22;2782;52.362;10.012;2023-09-30T02:23:20;20.90;99.90
5520;DHT22;2782;52.362;10.012;2023-09-30T02:24:21;20.90;99.90
5520;DHT22;2782;52.362;10.012;2023-09-30T02:25:23;20.90;99.90
5520;DHT22;2782;52.362;10.012;2023-09-30T02:26:24;20.90;99.90
5520;DHT22;2782;52.362;10.012;2023-09-30T02:27:27;20.90;99.90
5520;DHT22;2782;52.362;10.012;2023-09-30T02:28:29;20.90;99.90
5520;DHT22;2782;52.362;10.012;2023-09-30T02:29:32;20.90;99.90
5520;DHT22;2782;52.362;10.012;2023-09-30T02:30:33;20.90;99.90
5520;DHT22;2782;52.362;10.012;2023-09-30T02:31:35;20.90;99.90
5520;DHT22;2782;52.362;10.012;2023-09-30T02:32:36;20.90;99.90
5520;DHT22;2782;52.362;10.012;2023-09-30T02:33:37;20.90;99.90
5520;DHT22;2782;52.362;10.012;2023-09-30T02:34:39;20.90;99.90
5520;DHT22;2782;52.362;10.012;2023-09-30T02:35:43;20.90;99.90
5520;DHT22;2782;52.362;10.012;2023-09-30T02:36:45;20.90;99.90
5520;DHT22;2782;52.362;10.012;2023-09-30T02:37:46;20.90;99.90
5520;DHT22;2782;52.362;10.012;2023-09-30T02:38:48;20.90;99.90
5520;DHT22;2782;52.362;10.012;2023-09-30T02:39:50;20.90;99.90
5520;DHT22;2782;52.362;10.012;2023-09-30T02:40:51;20.90;99.90
5520;DHT22;2782;52.362;10.012;2023-09-30T02:41:52;20.90;99.90
5520;DHT22;2782;52.362;10.012;2023-09-30T02:42:53;20.90;99.90
5520;DHT22;2782;52.362;10.012;2023-09-30T02:43:54;20.90;99.90
5520;DHT22;2782;52.362;10.012;2023-09-30T02:44:56;20.90;99.90
5520;DHT22;2782;52.362;10.012;2023-09-30T02:45:56;20.90;99.90
5520;DHT22;2782;52.362;10.012;2023-09-30T02:46:58;20.90;99.90
5520;DHT22;2782;52.362;10.012;2023-09-30T02:47:59;20.90;99.90
5520;DHT22;2782;52.362;10.012;2023-09-30T02:49:01;20.90;99.90
5520;DHT22;2782;52.362;10.012;2023-09-30T02:50:04;20.90;99.90
5520;DHT22;2782;52.362;10.012;2023-09-30T02:51:09;20.90;99.90
5520;DHT22;2782;52.362;10.012;2023-09-30T02:52:11;20.90;99.90
5520;DHT22;2782;52.362;10.012;2023-09-30T02:55:16;20.90;99.90
5520;DHT22;2782;52.362;10.012;2023-09-30T02:56:17;20.80;99.90
5520;DHT22;2782;52.362;10.012;2023-09-30T02:57:19;20.80;99.90
5520;DHT22;2782;52.362;10.012;2023-09-30T02:58:21;20.80;99.90
5520;DHT22;2782;52.362;10.012;2023-09-30T02:59:22;20.80;99.90
5520;DHT22;2782;52.362;10.012;2023-09-30T03:00:23;20.80;99.90
5520;DHT22;2782;52.362;10.012;2023-09-30T03:01:24;20.80;99.90
5520;DHT22;2782;52.362;10.012;2023-09-30T03:02:25;20.80;99.90
5520;DHT22;2782;52.362;10.012;2023-09-30T03:03:27;20.80;99.90
5520;DHT22;2782;52.362;10.012;2023-09-30T03:04:27;20.80;99.90
5520;DHT22;2782;52.362;10.012;2023-09-30T03:05:29;20.80;99.90
5520;DHT22;2782;52.362;10.012;2023-09-30T03:06:33;20.90;99.90
5520;DHT22;2782;52.362;10.012;2023-09-30T03:07:37;20.80;99.90
5520;DHT22;2782;52.362;10.012;2023-09-30T03:08:38;20.80;99.90
5520;DHT22;2782;52.362;10.012;2023-09-30T03:09:41;20.80;99.90
5520;DHT22;2782;52.362;10.012;2023-09-30T03:10:43;20.80;99.90
5520;DHT22;2782;52.362;10.012;2023-09-30T03:11:46;20.80;99.90
5520;DHT22;2782;52.362;10.012;2023-09-30T03:12:47;20.90;99.90
5520;DHT22;2782;52.362;10.012;2023-09-30T03:13:48;20.80;99.90
5520;DHT22;2782;52.362;10.012;2023-09-30T03:14:51;20.80;99.90
5520;DHT22;2782;52.362;10.012;2023-09-30T03:15:51;20.80;99.90
5520;DHT22;2782;52.362;10.012;2023-09-30T03:16:53;20.80;99.90
5520;DHT22;2782;52.362;10.012;2023-09-30T03:17:54;20.80;99.90
5520;DHT22;2782;52.362;10.012;2023-09-30T03:18:56;20.80;99.90
5520;DHT22;2782;52.362;10.012;2023-09-30T03:19:57;20.80;99.90
5520;DHT22;2782;52.362;10.012;2023-09-30T03:21:00;20.80;99.90
5520;DHT22;2782;52.362;10.012;2023-09-30T03:22:01;20.80;99.90
5520;DHT22;2782;52.362;10.012;2023-09-30T03:23:06;20.80;99.90
5520;DHT22;2782;52.362;10.012;2023-09-30T03:24:09;20.80;99.90
5520;DHT22;2782;52.362;10.012;2023-09-30T03:25:12;20.80;99.90
5520;DHT22;2782;52.362;10.012;2023-09-30T03:26:14;20.80;99.90
5520;DHT22;2782;52.362;10.012;2023-09-30T03:27:16;20.80;99.90
5520;DHT22;2782;52.362;10.012;2023-09-30T03:28:17;20.80;99.90
5520;DHT22;2782;52.362;10.012;2023-09-30T03:29:18;20.80;99.90
5520;DHT22;2782;52.362;10.012;2023-09-30T03:30:19;20.80;99.90
5520;DHT22;2782;52.362;10.012;2023-09-30T03:31:21;20.80;99.90
5520;DHT22;2782;52.362;10.012;2023-09-30T03:32:22;20.80;99.90
5520;DHT22;2782;52.362;10.012;2023-09-30T03:33:25;20.80;99.90
5520;DHT22;2782;52.362;10.012;2023-09-30T03:34:27;20.80;99.90
5520;DHT22;2782;52.362;10.012;2023-09-30T03:35:29;20.80;99.90
5520;DHT22;2782;52.362;10.012;2023-09-30T03:36:30;20.80;99.90
5520;DHT22;2782;52.362;10.012;2023-09-30T03:37:32;20.80;99.90
5520;DHT22;2782;52.362;10.012;2023-09-30T03:38:35;20.80;99.90
5520;DHT22;2782;52.362;10.012;2023-09-30T03:39:36;20.80;99.90
5520;DHT22;2782;52.362;10.012;2023-09-30T03:40:39;20.80;99.90
5520;DHT22;2782;52.362;10.012;2023-09-30T03:41:41;20.80;99.90
5520;DHT22;2782;52.362;10.012;2023-09-30T03:42:43;20.80;99.90
5520;DHT22;2782;52.362;10.012;2023-09-30T03:43:45;20.80;99.90
5520;DHT22;2782;52.362;10.012;2023-09-30T03:44:50;20.80;99.90
5520;DHT22;2782;52.362;10.012;2023-09-30T03:45:51;20.80;99.90
5520;DHT22;2782;52.362;10.012;2023-09-30T03:46:54;20.80;99.90
5520;DHT22;2782;52.362;10.012;2023-09-30T03:47:55;20.80;99.90
5520;DHT22;2782;52.362;10.012;2023-09-30T03:48:56;20.80;99.90
5520;DHT22;2782;52.362;10.012;2023-09-30T03:49:57;20.80;99.90
5520;DHT22;2782;52.362;10.012;2023-09-30T03:51:08;20.80;99.90
5520;DHT22;2782;52.362;10.012;2023-09-30T03:52:09;20.80;99.90
5520;DHT22;2782;52.362;10.012;2023-09-30T03:53:11;20.80;99.90
5520;DHT22;2782;52.362;10.012;2023-09-30T03:54:12;20.80;99.90
5520;DHT22;2782;52.362;10.012;2023-09-30T03:55:13;20.80;99.90
5520;DHT22;2782;52.362;10.012;2023-09-30T03:56:15;20.80;99.90
5520;DHT22;2782;52.362;10.012;2023-09-30T03:57:20;20.80;99.90
5520;DHT22;2782;52.362;10.012;2023-09-30T03:58:21;20.80;99.90
5520;DHT22;2782;52.362;10.012;2023-09-30T03:59:24;20.80;99.90
5520;DHT22;2782;52.362;10.012;2023-09-30T04:00:24;20.80;99.90
5520;DHT22;2782;52.362;10.012;2023-09-30T04:01:26;20.80;99.90
5520;DHT22;2782;52.362;10.012;2023-09-30T04:02:27;20.80;99.90
5520;DHT22;2782;52.362;10.012;2023-09-30T04:03:29;20.80;99.90
5520;DHT22;2782;52.362;10.012;2023-09-30T04:04:29;20.80;99.90
5520;DHT22;2782;52.362;10.012;2023-09-30T04:05:31;20.80;99.90
5520;DHT22;2782;52.362;10.012;2023-09-30T04:06:37;20.80;99.90
5520;DHT22;2782;52.362;10.012;2023-09-30T04:07:39;20.80;99.90
5520;DHT22;2782;52.362;10.012;2023-09-30T04:08:40;20.80;99.90
5520;DHT22;2782;52.362;10.012;2023-09-30T04:09:40;20.80;99.90
5520;DHT22;2782;52.362;10.012;2023-09-30T04:10:43;20.80;99.90
5520;DHT22;2782;52.362;10.012;2023-09-30T04:11:44;20.80;99.90
5520;DHT22;2782;52.362;10.012;2023-09-30T04:12:48;20.80;99.90
5520;DHT22;2782;52.362;10.012;2023-09-30T04:13:49;20.80;99.90
5520;DHT22;2782;52.362;10.012;2023-09-30T04:14:51;20.80;99.90
5520;DHT22;2782;52.362;10.012;2023-09-30T04:15:53;20.80;99.90
5520;DHT22;2782;52.362;10.012;2023-09-30T04:16:54;20.80;99.90
5520;DHT22;2782;52.362;10.012;2023-09-30T04:17:55;20.80;99.90
5520;DHT22;2782;52.362;10.012;2023-09-30T04:18:56;20.80;99.90
5520;DHT22;2782;52.362;10.012;2023-09-30T04:19:57;20.80;99.90
5520;DHT22;2782;52.362;10.012;2023-09-30T04:20:58;20.80;99.90
5520;DHT22;2782;52.362;10.012;2023-09-30T04:22:00;20.80;99.90
5520;DHT22;2782;52.362;10.012;2023-09-30T04:23:01;20.80;99.90
5520;DHT22;2782;52.362;10.012;2023-09-30T04:24:03;20.80;99.90
5520;DHT22;2782;52.362;10.012;2023-09-30T04:25:07;20.80;99.90
5520;DHT22;2782;52.362;10.012;2023-09-30T04:26:11;20.80;99.90
5520;DHT22;2782;52.362;10.012;2023-09-30T04:27:11;20.80;99.90
5520;DHT22;2782;52.362;10.012;2023-09-30T04:28:15;20.80;99.90
5520;DHT22;2782;52.362;10.012;2023-09-30T04:29:16;20.80;99.90
5520;DHT22;2782;52.362;10.012;2023-09-30T04:30:19;20.80;99.90
5520;DHT22;2782;52.362;10.012;2023-09-30T04:31:20;20.80;99.90
5520;DHT22;2782;52.362;10.012;2023-09-30T04:32:21;20.80;99.90
5520;DHT22;2782;52.362;10.012;2023-09-30T04:33:22;20.80;99.90
5520;DHT22;2782;52.362;10.012;2023-09-30T04:34:25;20.80;99.90
5520;DHT22;2782;52.362;10.012;2023-09-30T04:35:28;20.80;99.90
5520;DHT22;2782;52.362;10.012;2023-09-30T04:36:31;20.80;99.90
5520;DHT22;2782;52.362;10.012;2023-09-30T04:37:32;20.80;99.90
5520;DHT22;2782;52.362;10.012;2023-09-30T04:38:33;20.80;99.90
5520;DHT22;2782;52.362;10.012;2023-09-30T04:39:35;20.80;99.90
5520;DHT22;2782;52.362;10.012;2023-09-30T04:40:36;20.80;99.90
5520;DHT22;2782;52.362;10.012;2023-09-30T04:41:38;20.80;99.90
5520;DHT22;2782;52.362;10.012;2023-09-30T04:42:42;20.80;99.90
5520;DHT22;2782;52.362;10.012;2023-09-30T04:43:45;20.80;99.90
5520;DHT22;2782;52.362;10.012;2023-09-30T04:44:46;20.80;99.90
5520;DHT22;2782;52.362;10.012;2023-09-30T04:45:48;20.80;99.90
5520;DHT22;2782;52.362;10.012;2023-09-30T04:46:53;20.80;99.90
5520;DHT22;2782;52.362;10.012;2023-09-30T04:47:56;20.80;99.90
5520;DHT22;2782;52.362;10.012;2023-09-30T04:48:57;20.80;99.90
5520;DHT22;2782;52.362;10.012;2023-09-30T04:49:59;20.80;99.90
5520;DHT22;2782;52.362;10.012;2023-09-30T04:50:59;20.80;99.90
5520;DHT22;2782;52.362;10.012;2023-09-30T04:52:05;20.80;99.90
5520;DHT22;2782;52.362;10.012;2023-09-30T04:53:07;20.80;99.90
5520;DHT22;2782;52.362;10.012;2023-09-30T04:54:09;20.80;99.90
5520;DHT22;2782;52.362;10.012;2023-09-30T04:55:11;20.80;99.90
5520;DHT22;2782;52.362;10.012;2023-09-30T04:56:16;20.80;99.90
5520;DHT22;2782;52.362;10.012;2023-09-30T04:57:16;20.80;99.90
5520;DHT22;2782;52.362;10.012;2023-09-30T04:58:19;20.80;99.90
5520;DHT22;2782;52.362;10.012;2023-09-30T04:59:21;20.80;99.90
5520;DHT22;2782;52.362;10.012;2023-09-30T05:00:25;20.80;99.90
5520;DHT22;2782;52.362;10.012;2023-09-30T05:01:26;20.80;99.90
5520;DHT22;2782;52.362;10.012;2023-09-30T05:02:28;20.70;99.90
5520;DHT22;2782;52.362;10.012;2023-09-30T05:03:29;20.70;99.90
5520;DHT22;2782;52.362;10.012;2023-09-30T05:04:30;20.80;99.90
5520;DHT22;2782;52.362;10.012;2023-09-30T05:05:31;20.80;99.90
5520;DHT22;2782;52.362;10.012;2023-09-30T05:06:33;20.80;99.90
5520;DHT22;2782;52.362;10.012;2023-09-30T05:07:33;20.80;99.90
5520;DHT22;2782;52.362;10.012;2023-09-30T05:08:34;20.80;99.90
5520;DHT22;2782;52.362;10.012;2023-09-30T05:09:36;20.80;99.90
5520;DHT22;2782;52.362;10.012;2023-09-30T05:10:36;20.80;99.90
5520;DHT22;2782;52.362;10.012;2023-09-30T05:11:38;20.80;99.90
5520;DHT22;2782;52.362;10.012;2023-09-30T05:12:39;20.80;99.90
5520;DHT22;2782;52.362;10.012;2023-09-30T05:13:41;20.80;99.90
5520;DHT22;2782;52.362;10.012;2023-09-30T05:14:44;20.80;99.90
5520;DHT22;2782;52.362;10.012;2023-09-30T05:15:45;20.80;99.90
5520;DHT22;2782;52.362;10.012;2023-09-30T05:16:46;20.80;99.90
5520;DHT22;2782;52.362;10.012;2023-09-30T05:17:48;20.80;99.90
5520;DHT22;2782;52.362;10.012;2023-09-30T05:18:50;20.80;99.90
5520;DHT22;2782;52.362;10.012;2023-09-30T05:19:51;20.80;99.90
5520;DHT22;2782;52.362;10.012;2023-09-30T05:20:53;20.80;99.90
5520;DHT22;2782;52.362;10.012;2023-09-30T05:21:54;20.80;99.90
5520;DHT22;2782;52.362;10.012;2023-09-30T05:22:55;20.80;99.90
5520;DHT22;2782;52.362;10.012;2023-09-30T05:23:56;20.80;99.90
5520;DHT22;2782;52.362;10.012;2023-09-30T05:24:59;20.80;99.90
5520;DHT22;2782;52.362;10.012;2023-09-30T05:26:01;20.80;99.90
5520;DHT22;2782;52.362;10.012;2023-09-30T05:27:02;20.80;99.90
5520;DHT22;2782;52.362;10.012;2023-09-30T05:28:03;20.80;99.90
5520;DHT22;2782;52.362;10.012;2023-09-30T05:29:06;20.80;99.90
5520;DHT22;2782;52.362;10.012;2023-09-30T05:30:10;20.80;99.90
5520;DHT22;2782;52.362;10.012;2023-09-30T05:31:11;20.80;99.90
5520;DHT22;2782;52.362;10.012;2023-09-30T05:32:13;20.80;99.90
5520;DHT22;2782;52.362;10.012;2023-09-30T05:33:14;20.80;99.90
5520;DHT22;2782;52.362;10.012;2023-09-30T05:34:17;20.80;99.90
5520;DHT22;2782;52.362;10.012;2023-09-30T05:35:17;20.70;99.90
5520;DHT22;2782;52.362;10.012;2023-09-30T05:36:22;20.70;99.90
5520;DHT22;2782;52.362;10.012;2023-09-30T05:37:24;20.70;99.90
5520;DHT22;2782;52.362;10.012;2023-09-30T05:38:26;20.70;99.90
5520;DHT22;2782;52.362;10.012;2023-09-30T05:39:27;20.70;99.90
5520;DHT22;2782;52.362;10.012;2023-09-30T05:40:29;20.80;99.90
5520;DHT22;2782;52.362;10.012;2023-09-30T05:41:30;20.80;99.90
5520;DHT22;2782;52.362;10.012;2023-09-30T05:42:32;20.80;99.90
5520;DHT22;2782;52.362;10.012;2023-09-30T05:43:33;20.80;99.90
5520;DHT22;2782;52.362;10.012;2023-09-30T05:44:35;20.70;99.90
5520;DHT22;2782;52.362;10.012;2023-09-30T05:45:37;20.80;99.90
5520;DHT22;2782;52.362;10.012;2023-09-30T05:46:38;20.80;99.90
5520;DHT22;2782;52.362;10.012;2023-09-30T05:47:39;20.80;99.90
5520;DHT22;2782;52.362;10.012;2023-09-30T05:48:41;20.80;99.90
5520;DHT22;2782;52.362;10.012;2023-09-30T05:49:43;20.80;99.90
5520;DHT22;2782;52.362;10.012;2023-09-30T05:50:43;20.80;99.90
5520;DHT22;2782;52.362;10.012;2023-09-30T05:51:45;20.80;99.90
5520;DHT22;2782;52.362;10.012;2023-09-30T05:52:46;20.80;99.90
5520;DHT22;2782;52.362;10.012;2023-09-30T05:53:47;20.80;99.90
5520;DHT22;2782;52.362;10.012;2023-09-30T05:54:49;20.80;99.90
5520;DHT22;2782;52.362;10.012;2023-09-30T05:55:50;20.80;99.90
5520;DHT22;2782;52.362;10.012;2023-09-30T05:56:52;20.80;99.90
5520;DHT22;2782;52.362;10.012;2023-09-30T05:57:52;20.80;99.90
5520;DHT22;2782;52.362;10.012;2023-09-30T05:58:54;20.80;99.90
5520;DHT22;2782;52.362;10.012;2023-09-30T05:59:56;20.80;99.90
5520;DHT22;2782;52.362;10.012;2023-09-30T06:00:58;20.80;99.90
5520;DHT22;2782;52.362;10.012;2023-09-30T06:02:00;20.80;99.90
5520;DHT22;2782;52.362;10.012;2023-09-30T06:03:03;20.90;99.90
5520;DHT22;2782;52.362;10.012;2023-09-30T06:04:06;20.90;99.90
5520;DHT22;2782;52.362;10.012;2023-09-30T06:05:08;20.90;99.90
5520;DHT22;2782;52.362;10.012;2023-09-30T06:06:11;20.90;99.90
5520;DHT22;2782;52.362;10.012;2023-09-30T06:07:13;20.90;99.90
5520;DHT22;2782;52.362;10.012;2023-09-30T06:08:14;20.90;99.90
5520;DHT22;2782;52.362;10.012;2023-09-30T06:09:15;20.90;99.90
5520;DHT22;2782;52.362;10.012;2023-09-30T06:10:17;20.80;99.50
5520;DHT22;2782;52.362;10.012;2023-09-30T06:11:19;20.90;99.70
5520;DHT22;2782;52.362;10.012;2023-09-30T06:12:24;20.90;99.40
5520;DHT22;2782;52.362;10.012;2023-09-30T06:13:25;20.90;99.40
5520;DHT22;2782;52.362;10.012;2023-09-30T06:14:27;20.80;98.80
5520;DHT22;2782;52.362;10.012;2023-09-30T06:15:28;20.80;98.50
5520;DHT22;2782;52.362;10.012;2023-09-30T06:16:31;20.90;98.30
5520;DHT22;2782;52.362;10.012;2023-09-30T06:17:32;20.90;98.40
5520;DHT22;2782;52.362;10.012;2023-09-30T06:18:34;20.90;98.30
5520;DHT22;2782;52.362;10.012;2023-09-30T06:19:35;20.80;97.90
5520;DHT22;2782;52.362;10.012;2023-09-30T06:20:38;20.90;97.80
5520;DHT22;2782;52.362;10.012;2023-09-30T06:21:38;20.90;97.70
5520;DHT22;2782;52.362;10.012;2023-09-30T06:22:40;20.90;98.70
5520;DHT22;2782;52.362;10.012;2023-09-30T06:23:41;20.90;99.40
5520;DHT22;2782;52.362;10.012;2023-09-30T06:24:43;20.90;99.40
5520;DHT22;2782;52.362;10.012;2023-09-30T06:25:44;20.90;99.80
5520;DHT22;2782;52.362;10.012;2023-09-30T06:26:44;20.90;98.70
5520;DHT22;2782;52.362;10.012;2023-09-30T06:27:49;20.90;99.00
5520;DHT22;2782;52.362;10.012;2023-09-30T06:28:51;20.90;96.10
5520;DHT22;2782;52.362;10.012;2023-09-30T06:29:55;20.80;94.60
5520;DHT22;2782;52.362;10.012;2023-09-30T06:30:55;20.80;93.80
5520;DHT22;2782;52.362;10.012;2023-09-30T06:31:58;20.70;93.30
5520;DHT22;2782;52.362;10.012;2023-09-30T06:32:59;20.70;92.90
5520;DHT22;2782;52.362;10.012;2023-09-30T06:34:01;20.60;92.10
5520;DHT22;2782;52.362;10.012;2023-09-30T06:35:02;20.60;92.20
5520;DHT22;2782;52.362;10.012;2023-09-30T06:36:08;20.60;94.30
5520;DHT22;2782;52.362;10.012;2023-09-30T06:37:09;20.60;93.70
5520;DHT22;2782;52.362;10.012;2023-09-30T06:38:10;20.50;92.70
5520;DHT22;2782;52.362;10.012;2023-09-30T06:39:11;20.40;91.30
5520;DHT22;2782;52.362;10.012;2023-09-30T06:40:13;20.40;91.70
5520;DHT22;2782;52.362;10.012;2023-09-30T06:41:17;20.40;90.50